createdAt,value
2022-08-19T00:01:59.030Z,59.40
2022-08-19T00:05:00.882Z,59.30
2022-08-19T00:08:02.500Z,59.60
2022-08-19T00:11:04.450Z,59.50
2022-08-19T00:14:07.051Z,59.50
2022-08-19T00:17:09.500Z,59.50
2022-08-19T00:20:12.470Z,59.30
2022-08-19T00:23:16.999Z,59.30
2022-08-19T00:26:18.862Z,59.40
2022-08-19T00:29:20.944Z,59.30
2022-08-19T00:32:22.298Z,59.40
2022-08-19T00:35:23.829Z,59.20
2022-08-19T00:38:35.099Z,59.30
2022-08-19T00:41:40.059Z,59.50
2022-08-19T00:44:41.841Z,59.30
2022-08-19T00:47:43.637Z,59.30
2022-08-19T00:50:52.094Z,59.30
2022-08-19T00:53:55.636Z,59.20
2022-08-19T00:56:57.802Z,59.40
2022-08-19T01:00:02.325Z,59.30
2022-08-19T01:03:07.031Z,59.30
2022-08-19T01:06:08.305Z,59.30
2022-08-19T01:09:09.645Z,59.20
2022-08-19T01:12:11.507Z,59.40
2022-08-19T01:15:14.952Z,59.80
2022-08-19T01:18:18.227Z,59.40
2022-08-19T01:21:22.701Z,59.30
2022-08-19T01:24:25.043Z,59.10
2022-08-19T01:27:26.363Z,59.30
2022-08-19T01:30:29.203Z,59.40
2022-08-19T01:33:31.358Z,59.20
2022-08-19T01:36:34.353Z,59.20
2022-08-19T01:39:36.192Z,59.40
2022-08-19T01:42:37.627Z,59.50
2022-08-19T01:45:43.560Z,59.30
2022-08-19T01:48:45.462Z,59.30
2022-08-19T01:51:47.350Z,59.20
2022-08-19T01:54:49.421Z,59.30
2022-08-19T01:57:52.120Z,59.40
2022-08-19T02:00:53.490Z,59.20
2022-08-19T02:03:55.059Z,59.20
2022-08-19T02:06:59.379Z,59.30
2022-08-19T02:10:03.800Z,59.30
2022-08-19T02:13:11.616Z,59.30
2022-08-19T02:16:15.999Z,59.20
2022-08-19T02:19:17.305Z,59.30
2022-08-19T02:22:18.691Z,59.20
2022-08-19T02:25:21.028Z,59.30
2022-08-19T02:28:22.347Z,59.30
2022-08-19T02:31:25.606Z,59.30
2022-08-19T02:34:27.127Z,59.30
2022-08-19T02:37:43.076Z,59.30
2022-08-19T02:40:50.689Z,59.20
2022-08-19T02:44:26.667Z,59.20
2022-08-19T02:47:14.658Z,59.30
2022-08-19T02:50:15.965Z,59.40
2022-08-19T02:53:17.277Z,59.30
2022-08-19T02:56:20.076Z,59.30
2022-08-19T02:59:23.132Z,59.30
2022-08-19T03:02:24.695Z,59.40
2022-08-19T03:05:46.975Z,59.30
2022-08-19T03:08:48.554Z,59.10
2022-08-19T03:11:52.692Z,59.30
2022-08-19T03:14:54.383Z,59.30
2022-08-19T03:17:55.796Z,59.20
2022-08-19T03:20:58.683Z,59.20
2022-08-19T03:24:01.762Z,59.30
2022-08-19T03:27:07.122Z,59.40
2022-08-19T03:30:11.712Z,59.50
2022-08-19T03:33:18.008Z,59.30
2022-08-19T03:36:21.660Z,59.20
2022-08-19T03:39:24.050Z,59.30
2022-08-19T03:42:32.062Z,59.20
2022-08-19T03:45:34.669Z,59.20
2022-08-19T03:48:37.099Z,59.30
2022-08-19T03:51:38.905Z,59.30
2022-08-19T03:54:40.267Z,59.30
2022-08-19T03:57:42.338Z,59.40
2022-08-19T04:00:43.709Z,59.30
2022-08-19T04:03:46.525Z,59.20
2022-08-19T04:06:48.277Z,59.30
2022-08-19T04:09:50.592Z,59.40
2022-08-19T04:12:52.601Z,59.40
2022-08-19T04:15:53.927Z,59.40
2022-08-19T04:18:55.856Z,59.40
2022-08-19T04:21:58.437Z,59.30
2022-08-19T04:24:59.776Z,59.50
2022-08-19T04:28:01.955Z,59.50
2022-08-19T04:31:03.235Z,59.50
2022-08-19T04:34:05.796Z,59.40
2022-08-19T04:37:12.897Z,59.50
2022-08-19T04:40:25.874Z,59.50
2022-08-19T04:43:27.735Z,59.60
2022-08-19T04:46:40.279Z,59.50
2022-08-19T04:49:52.007Z,59.50
2022-08-19T04:52:53.481Z,59.70
2022-08-19T04:55:55.363Z,59.50
2022-08-19T04:58:57.745Z,59.70
2022-08-19T05:01:59.142Z,59.70
2022-08-19T05:05:00.621Z,59.60
2022-08-19T05:08:02.013Z,59.60
2022-08-19T05:11:07.801Z,59.50
2022-08-19T05:14:12.584Z,59.50
2022-08-19T05:17:33.280Z,59.70
2022-08-19T05:20:52.700Z,59.70
2022-08-19T05:23:54.020Z,59.60
2022-08-19T05:26:57.032Z,59.50
2022-08-19T05:29:59.659Z,59.70
2022-08-19T05:33:00.931Z,59.80
2022-08-19T05:36:02.449Z,59.70
2022-08-19T05:39:04.270Z,59.70
2022-08-19T05:42:07.080Z,59.80
2022-08-19T05:45:09.494Z,59.80
2022-08-19T05:48:11.488Z,59.90
2022-08-19T05:51:15.928Z,59.70
2022-08-19T05:54:23.338Z,59.90
2022-08-19T05:57:24.888Z,60.20
2022-08-19T06:00:26.880Z,59.80
2022-08-19T06:03:28.536Z,59.90
2022-08-19T06:06:29.857Z,59.80
2022-08-19T06:09:31.176Z,59.80
2022-08-19T06:12:34.291Z,60.00
2022-08-19T06:15:36.195Z,60.00
2022-08-19T06:18:37.485Z,59.90
2022-08-19T06:21:40.705Z,60.00
2022-08-19T06:24:42.235Z,60.00
2022-08-19T06:28:14.797Z,60.50
2022-08-19T06:31:07.565Z,60.00
2022-08-19T06:34:09.244Z,59.90
2022-08-19T06:37:11.514Z,60.00
2022-08-19T06:40:12.932Z,60.00
2022-08-19T06:43:16.230Z,59.90
2022-08-19T06:46:21.173Z,60.00
2022-08-19T06:49:22.983Z,60.10
2022-08-19T06:52:24.375Z,60.10
2022-08-19T06:55:29.432Z,59.90
2022-08-19T06:58:32.291Z,60.00
2022-08-19T07:01:37.641Z,60.00
2022-08-19T07:04:39.027Z,60.00
2022-08-19T07:07:43.950Z,59.90
2022-08-19T07:10:49.300Z,60.00
2022-08-19T07:13:51.382Z,60.00
2022-08-19T07:16:57.041Z,60.00
2022-08-19T07:20:05.366Z,60.00
2022-08-19T07:23:16.167Z,60.10
2022-08-19T07:26:19.760Z,60.00
2022-08-19T07:29:30.258Z,59.90
2022-08-19T07:32:32.717Z,60.00
2022-08-19T07:35:34.288Z,60.10
2022-08-19T07:38:35.747Z,60.00
2022-08-19T07:41:39.480Z,59.90
2022-08-19T07:47:51.229Z,59.80
2022-08-19T07:50:57.398Z,60.00
2022-08-19T07:53:58.795Z,60.00
2022-08-19T07:57:00.145Z,60.00
2022-08-19T08:00:01.466Z,59.90
2022-08-19T08:03:03.845Z,59.90
2022-08-19T08:06:15.904Z,59.90
2022-08-19T08:12:34.654Z,60.00
2022-08-19T08:15:42.550Z,60.00
2022-08-19T08:18:50.641Z,59.90
2022-08-19T08:21:58.695Z,60.00
2022-08-19T08:25:05.033Z,59.80
2022-08-19T08:28:09.162Z,59.90
2022-08-19T08:31:13.018Z,59.90
2022-08-19T08:34:15.440Z,59.90
2022-08-19T08:37:16.805Z,60.00
2022-08-19T08:40:21.346Z,59.90
2022-08-19T08:43:26.818Z,59.90
2022-08-19T08:46:38.343Z,59.80
2022-08-19T08:49:42.180Z,59.90
2022-08-19T08:52:46.322Z,60.00
2022-08-19T08:55:48.215Z,59.90
2022-08-19T08:58:54.964Z,59.90
2022-08-19T09:01:56.346Z,59.90
2022-08-19T09:04:58.528Z,59.80
2022-08-19T09:08:03.128Z,59.90
2022-08-19T09:11:07.904Z,59.80
2022-08-19T09:14:40.692Z,59.80
2022-08-19T09:17:38.722Z,59.90
2022-08-19T09:20:42.953Z,60.60
2022-08-19T09:23:44.457Z,59.80
2022-08-19T09:26:48.544Z,59.90
2022-08-19T09:29:54.437Z,59.90
2022-08-19T09:32:56.340Z,59.90
2022-08-19T09:36:08.626Z,59.80
2022-08-19T09:39:16.443Z,59.80
2022-08-19T09:42:29.718Z,59.90
2022-08-19T09:45:32.475Z,59.80
2022-08-19T09:48:34.198Z,59.80
2022-08-19T09:51:36.613Z,59.80
2022-08-19T09:54:39.209Z,59.80
2022-08-19T09:57:45.642Z,59.90
2022-08-19T10:00:50.937Z,60.00
2022-08-19T10:03:54.733Z,59.90
2022-08-19T10:06:56.752Z,60.00
2022-08-19T10:09:58.592Z,60.10
2022-08-19T10:12:59.954Z,60.00
2022-08-19T10:16:04.203Z,60.00
2022-08-19T10:19:05.844Z,59.90
2022-08-19T10:22:10.065Z,60.00
2022-08-19T10:25:17.540Z,59.90
2022-08-19T10:28:19.540Z,60.00
2022-08-19T10:32:00.762Z,60.00
2022-08-19T10:34:48.975Z,60.00
2022-08-19T10:37:57.622Z,60.00
2022-08-19T10:41:11.312Z,60.00
2022-08-19T10:44:13.835Z,60.00
2022-08-19T10:47:24.572Z,60.10
2022-08-19T10:50:41.828Z,59.90
2022-08-19T10:53:43.829Z,60.20
2022-08-19T10:56:52.132Z,60.10
2022-08-19T10:59:53.557Z,60.20
2022-08-19T11:02:55.906Z,60.10
2022-08-19T11:05:58.226Z,60.30
2022-08-19T11:09:03.630Z,60.20
2022-08-19T11:12:05.235Z,60.20
2022-08-19T11:15:08.716Z,60.20
2022-08-19T11:18:13.233Z,60.20
2022-08-19T11:21:17.305Z,60.20
2022-08-19T11:24:20.564Z,60.30
2022-08-19T11:27:22.018Z,60.50
2022-08-19T11:30:23.814Z,60.20
2022-08-19T11:33:26.384Z,60.40
2022-08-19T11:36:28.107Z,60.30
2022-08-19T11:39:31.365Z,60.30
2022-08-19T11:42:45.931Z,60.30
2022-08-19T11:45:48.802Z,60.20
2022-08-19T11:48:50.833Z,60.40
2022-08-19T11:51:53.789Z,60.30
2022-08-19T11:54:56.200Z,60.40
2022-08-19T11:57:57.970Z,60.30
2022-08-19T12:00:59.430Z,60.40
2022-08-19T12:04:00.942Z,60.50
2022-08-19T12:07:03.481Z,60.60
2022-08-19T12:10:06.094Z,60.50
2022-08-19T12:13:07.790Z,60.40
2022-08-19T12:16:11.422Z,60.40
2022-08-19T12:19:12.849Z,60.60
2022-08-19T12:22:15.108Z,60.50
2022-08-19T12:25:17.240Z,60.50
2022-08-19T12:28:20.718Z,60.60
2022-08-19T12:31:22.257Z,60.60
2022-08-19T12:34:24.907Z,60.50
2022-08-19T12:37:26.647Z,60.70
2022-08-19T12:40:28.916Z,60.50
2022-08-19T12:43:30.687Z,60.60
2022-08-19T12:46:31.915Z,60.50
2022-08-19T12:49:54.936Z,60.80
2022-08-19T12:52:56.465Z,60.70
2022-08-19T12:55:59.935Z,60.80
2022-08-19T12:59:02.214Z,60.80
2022-08-19T13:02:05.614Z,60.80
2022-08-19T13:05:08.844Z,60.60
2022-08-19T13:08:11.633Z,60.70
2022-08-19T13:11:15.354Z,60.80
2022-08-19T13:14:16.717Z,61.00
2022-08-19T13:17:19.177Z,60.70
2022-08-19T13:20:20.954Z,60.90
2022-08-19T13:23:22.262Z,60.80
2022-08-19T13:26:24.253Z,60.80
2022-08-19T13:29:35.932Z,61.00
2022-08-19T13:32:52.156Z,61.10
2022-08-19T13:35:57.753Z,61.00
2022-08-19T13:38:59.125Z,61.00
2022-08-19T13:42:01.441Z,61.00
2022-08-19T13:45:03.347Z,61.00
2022-08-19T13:48:06.670Z,61.10
2022-08-19T13:51:10.951Z,61.00
2022-08-19T13:54:12.679Z,61.10
2022-08-19T13:57:14.679Z,61.00
2022-08-19T14:00:18.472Z,61.00
2022-08-19T14:03:19.958Z,61.20
2022-08-19T14:06:22.440Z,61.20
2022-08-19T14:09:23.859Z,61.30
2022-08-19T14:12:28.310Z,61.20
2022-08-19T14:15:30.237Z,61.20
2022-08-19T14:18:31.538Z,61.30
2022-08-19T14:21:33.562Z,61.30
2022-08-19T14:24:34.927Z,61.50
2022-08-19T14:27:37.757Z,61.30
2022-08-19T14:30:39.085Z,61.30
2022-08-19T14:33:40.986Z,61.40
2022-08-19T14:36:42.526Z,61.40
2022-08-19T14:39:44.801Z,61.50
2022-08-19T14:42:47.364Z,62.10
2022-08-19T14:45:48.675Z,61.50
2022-08-19T14:48:52.700Z,61.50
2022-08-19T14:51:55.197Z,61.50
2022-08-19T14:54:56.603Z,61.50
2022-08-19T14:57:59.480Z,61.50
2022-08-19T15:01:03.401Z,61.40
2022-08-19T15:04:04.893Z,61.30
2022-08-19T15:07:06.232Z,61.70
2022-08-19T15:10:08.392Z,61.60
2022-08-19T15:13:10.465Z,61.70
2022-08-19T15:16:18.203Z,61.70
2022-08-19T15:19:20.126Z,61.70
2022-08-19T15:22:21.591Z,61.60
2022-08-19T15:25:22.982Z,61.80
2022-08-19T15:28:25.603Z,61.70
2022-08-19T15:31:28.808Z,61.80
2022-08-19T15:34:31.700Z,61.70
2022-08-19T15:37:36.994Z,61.80
2022-08-19T15:40:39.276Z,61.90
2022-08-19T15:43:42.229Z,61.80
2022-08-19T15:46:44.488Z,61.80
2022-08-19T15:49:45.808Z,61.80
2022-08-19T15:52:49.426Z,61.80
2022-08-19T15:55:51.397Z,61.80
2022-08-19T15:59:05.997Z,62.20
2022-08-19T16:02:21.997Z,61.90
2022-08-19T16:05:46.076Z,61.80
2022-08-19T16:08:49.508Z,62.00
2022-08-19T16:11:56.560Z,62.00
2022-08-19T16:14:59.225Z,62.10
2022-08-19T16:18:01.995Z,61.90
2022-08-19T16:21:04.108Z,62.00
2022-08-19T16:24:06.840Z,61.90
2022-08-19T16:27:08.297Z,61.90
2022-08-19T16:30:10.854Z,61.90
2022-08-19T16:33:12.239Z,61.80
2022-08-19T16:36:24.195Z,61.80
2022-08-19T16:39:25.493Z,61.90
2022-08-19T16:42:26.973Z,61.90
2022-08-19T16:45:29.324Z,61.80
2022-08-19T16:48:30.672Z,61.90
2022-08-19T16:51:32.860Z,61.70
2022-08-19T16:54:34.991Z,61.80
2022-08-19T16:57:36.642Z,61.80
2022-08-19T17:00:38.640Z,61.80
2022-08-19T17:03:40.370Z,61.80
2022-08-19T17:06:42.730Z,61.80
2022-08-19T17:09:44.000Z,61.80
2022-08-19T17:12:47.899Z,61.90
2022-08-19T17:15:49.909Z,61.80
2022-08-19T17:18:52.019Z,61.80
2022-08-19T17:21:53.379Z,61.90
2022-08-19T17:24:56.226Z,61.50
2022-08-19T17:28:06.399Z,61.80
2022-08-19T17:31:08.733Z,61.70
2022-08-19T17:34:10.077Z,61.80
2022-08-19T17:37:14.557Z,62.00
2022-08-19T17:40:19.738Z,61.80
2022-08-19T17:43:32.795Z,61.70
2022-08-19T17:46:39.932Z,61.80
2022-08-19T17:49:41.216Z,61.80
2022-08-19T17:52:43.386Z,61.70
2022-08-19T17:55:44.793Z,61.80
2022-08-19T17:58:57.597Z,61.80
2022-08-19T18:02:03.978Z,61.80
2022-08-19T18:05:06.224Z,61.80
2022-08-19T18:08:10.425Z,61.90
2022-08-19T18:11:11.905Z,61.70
2022-08-19T18:14:14.453Z,61.60
2022-08-19T18:17:18.295Z,61.60
2022-08-19T18:20:19.615Z,61.70
2022-08-19T18:23:44.055Z,61.60
2022-08-19T18:26:42.672Z,61.70
2022-08-19T18:29:43.967Z,61.60
2022-08-19T18:32:48.905Z,61.50
2022-08-19T18:35:52.383Z,61.60
2022-08-19T18:39:09.141Z,61.40
2022-08-19T18:42:25.981Z,61.50
2022-08-19T18:45:43.671Z,61.90
2022-08-19T18:48:55.990Z,61.50
2022-08-19T18:52:02.381Z,61.80
2022-08-19T18:55:05.050Z,61.60
2022-08-19T18:58:10.069Z,61.40
2022-08-19T19:01:12.454Z,61.40
2022-08-19T19:04:14.508Z,61.70
2022-08-19T19:07:17.508Z,62.20
2022-08-19T19:10:21.999Z,61.60
2022-08-19T19:13:23.313Z,61.40
2022-08-19T19:16:24.855Z,61.40
2022-08-19T19:19:26.719Z,61.40
2022-08-19T19:22:31.116Z,61.40
2022-08-19T19:25:50.387Z,61.60
2022-08-19T19:28:53.505Z,61.50
2022-08-19T19:31:55.506Z,61.50
2022-08-19T19:34:58.707Z,61.80
2022-08-19T19:38:00.555Z,61.70
2022-08-19T19:41:02.045Z,61.60
2022-08-19T19:44:30.481Z,61.60
2022-08-19T19:47:27.384Z,61.60
2022-08-19T19:50:30.414Z,61.70
2022-08-19T19:53:33.005Z,61.70
2022-08-19T19:56:34.633Z,61.60
2022-08-19T19:59:36.083Z,61.70
2022-08-19T20:02:37.386Z,61.80
2022-08-19T20:05:39.302Z,62.20
2022-08-19T20:08:55.290Z,61.90
2022-08-19T20:11:57.538Z,61.80
2022-08-19T20:14:58.813Z,61.90
2022-08-19T20:18:01.550Z,61.90
2022-08-19T20:21:03.471Z,61.90
2022-08-19T20:24:09.793Z,62.10
2022-08-19T20:27:11.810Z,61.90
2022-08-19T20:30:19.296Z,62.10
2022-08-19T20:33:21.260Z,61.80
2022-08-19T20:36:23.819Z,62.00
2022-08-19T20:39:25.120Z,62.00
2022-08-19T20:42:26.699Z,62.00
2022-08-19T20:45:33.646Z,61.80
2022-08-19T20:48:38.860Z,62.00
2022-08-19T20:51:40.700Z,61.90
2022-08-19T20:54:42.077Z,61.90
2022-08-19T20:57:43.407Z,61.90
2022-08-19T21:00:45.217Z,62.00
2022-08-19T21:03:46.582Z,61.80
2022-08-19T21:06:49.099Z,62.00
2022-08-19T21:09:51.376Z,62.00
2022-08-19T21:12:52.967Z,62.10
2022-08-19T21:15:54.706Z,61.80
2022-08-19T21:18:55.997Z,61.90
2022-08-19T21:21:59.052Z,62.00
2022-08-19T21:25:01.305Z,62.20
2022-08-19T21:28:03.224Z,61.90
2022-08-19T21:31:05.683Z,61.90
2022-08-19T21:34:07.113Z,61.80
2022-08-19T21:37:11.756Z,61.80
2022-08-19T21:40:19.202Z,61.90
2022-08-19T21:43:20.848Z,61.90
2022-08-19T21:46:22.235Z,62.00
2022-08-19T21:49:23.574Z,61.90
2022-08-19T21:52:25.914Z,62.00
2022-08-19T21:55:27.452Z,61.70
2022-08-19T21:58:30.669Z,61.80
2022-08-19T22:01:32.301Z,61.80
2022-08-19T22:04:33.592Z,61.80
2022-08-19T22:07:36.252Z,61.80
2022-08-19T22:10:37.571Z,61.70
2022-08-19T22:13:40.569Z,61.60
2022-08-19T22:16:42.380Z,61.80
2022-08-19T22:19:43.889Z,61.90
2022-08-19T22:22:48.191Z,62.10
2022-08-19T22:25:54.132Z,61.70
2022-08-19T22:28:55.398Z,61.70
2022-08-19T22:31:58.488Z,61.80
2022-08-19T22:34:59.788Z,61.70
2022-08-19T22:38:02.017Z,61.80
2022-08-19T22:41:03.957Z,61.90
2022-08-19T22:44:05.436Z,62.00
2022-08-19T22:47:06.808Z,61.90
2022-08-19T22:50:13.718Z,61.80
2022-08-19T22:53:15.995Z,62.00
2022-08-19T22:56:18.073Z,61.80
2022-08-19T22:59:19.359Z,61.60
2022-08-19T23:02:22.425Z,61.80
2022-08-19T23:05:25.834Z,61.80
2022-08-19T23:08:29.064Z,62.50
2022-08-19T23:11:30.395Z,61.80
2022-08-19T23:14:31.888Z,61.70
2022-08-19T23:17:33.254Z,61.70
2022-08-19T23:20:35.933Z,61.80
2022-08-19T23:23:37.805Z,61.60
2022-08-19T23:27:02.673Z,61.80
2022-08-19T23:30:16.881Z,61.70
2022-08-19T23:33:23.305Z,61.70
2022-08-19T23:36:25.212Z,61.50
2022-08-19T23:39:29.152Z,62.30
2022-08-19T23:42:30.440Z,61.60
2022-08-19T23:45:35.010Z,61.70
2022-08-19T23:48:36.715Z,61.60
2022-08-19T23:51:38.075Z,61.50
2022-08-19T23:54:43.536Z,61.60
2022-08-19T23:57:45.380Z,61.60
